LFBH/LRH METAR and TAF weather

Enter ICAO airport designator
Station Type Date Time Source
LFBH METAR 2020/07/10 14:30 UTC NOAA

LFBH 101430Z AUTO 30013KT CAVOK 22/14 Q1019 TEMPO 31015G25KT


Station Type Date Time Source
LFBH Decoded METAR 2020/07/10 14:30 UTC NOAA

La Rochelle, France (LFBH) 46-09N 001-09W 10M
Jul 10, 2020 - 10:30 AM EDT / 2020.07.10 1430 UTC
Wind: from the WNW (300 degrees) at 15 MPH (13 KT):0
Visibility: greater than 7 mile(s):0
Temperature: 71 F (22 C)
Dew Point: 57 F (14 C)
Relative Humidity: 60%
Pressure (altimeter): 30.09 in. Hg (1019 hPa)
ob: LFBH 101430Z AUTO 30013KT CAVOK 22/14 Q1019 TEMPO 31015G25KT
cycle: 14

Station Type Date Time Source
LFBH TAF 2020/07/10 12:21 UTC NOAA

TAF LFBH 101100Z 1012/1112 29010KT 9999 BKN020
BECMG 1012/1014 CAVOK
TEMPO 1014/1020 31015G25KT
BECMG 1022/1024 03010KT

Example: see airport list